createdAt,value
2022-12-09T00:03:06.932Z,99357.66
2022-12-09T00:08:08.715Z,99359.06
2022-12-09T00:13:10.629Z,99354.34
2022-12-09T00:18:12.245Z,99345.09
2022-12-09T00:23:14.028Z,99352.09
2022-12-09T00:28:15.837Z,99345.38
2022-12-09T00:33:17.477Z,99359.34
2022-12-09T00:38:19.024Z,99348.72
2022-12-09T00:43:20.833Z,99346.63
2022-12-09T00:48:22.495Z,99351.38
2022-12-09T00:53:24.114Z,99355.16
2022-12-09T00:58:26.236Z,99364.78
2022-12-09T01:03:28.293Z,99358.50
2022-12-09T01:08:29.993Z,99360.03
2022-12-09T01:13:31.625Z,99361.44
2022-12-09T01:18:33.363Z,99357.25
2022-12-09T01:23:35.327Z,99356.25
2022-12-09T01:28:39.576Z,99364.22
2022-12-09T01:33:42.485Z,99365.50
2022-12-09T01:38:44.449Z,99371.66
2022-12-09T01:43:46.612Z,99363.25
2022-12-09T01:48:49.403Z,99367.19
2022-12-09T01:53:51.906Z,99358.78
2022-12-09T01:58:54.552Z,99362.28
2022-12-09T02:03:56.909Z,99354.03
2022-12-09T02:08:59.526Z,99349.44
2022-12-09T02:14:09.567Z,99350.41
2022-12-09T02:19:23.308Z,99356.69
2022-12-09T02:24:46.497Z,99344.28
2022-12-09T02:29:48.381Z,99344.97
2022-12-09T02:34:55.918Z,99337.84
2022-12-09T02:40:11.875Z,99344.81
2022-12-09T02:45:17.011Z,99335.19
2022-12-09T02:50:26.053Z,99333.38
2022-12-09T02:55:29.188Z,99339.94
2022-12-09T03:00:31.230Z,99339.94
2022-12-09T03:05:34.098Z,99331.84
2022-12-09T03:10:53.633Z,99328.06
2022-12-09T03:16:00.316Z,99324.69
2022-12-09T03:21:03.975Z,99320.53
2022-12-09T03:26:07.391Z,99326.53
2022-12-09T03:31:14.899Z,99327.81
2022-12-09T03:36:17.538Z,99325.25
2022-12-09T03:41:28.979Z,99323.03
2022-12-09T03:46:30.837Z,99324.31
2022-12-09T03:51:38.209Z,99326.53
2022-12-09T03:56:43.109Z,99323.72
2022-12-09T04:01:46.410Z,99318.28
2022-12-09T04:06:51.124Z,99315.50
2022-12-09T04:11:53.077Z,99312.16
2022-12-09T04:16:54.752Z,99313.28
2022-12-09T04:21:56.605Z,99299.16
2022-12-09T04:26:58.637Z,99293.72
2022-12-09T04:32:00.563Z,99304.59
2022-12-09T04:37:02.386Z,99290.50
2022-12-09T04:42:04.044Z,99290.91
2022-12-09T04:47:05.904Z,99290.78
2022-12-09T04:52:07.987Z,99300.44
2022-12-09T04:57:09.857Z,99308.22
2022-12-09T05:02:12.022Z,99308.94
2022-12-09T05:07:13.986Z,99308.94
2022-12-09T05:12:15.827Z,99315.75
2022-12-09T05:17:18.928Z,99312.84
2022-12-09T05:22:20.657Z,99317.59
2022-12-09T05:27:22.409Z,99309.63
2022-12-09T05:32:24.476Z,99308.38
2022-12-09T05:37:26.271Z,99304.19
2022-12-09T05:42:28.238Z,99306.28
2022-12-09T05:47:30.081Z,99310.19
2022-12-09T05:52:31.806Z,99300.69
2022-12-09T05:57:34.398Z,99298.03
2022-12-09T06:02:36.463Z,99294.41
2022-12-09T06:07:38.547Z,99293.56
2022-12-09T06:12:40.592Z,99289.81
2022-12-09T06:17:42.565Z,99291.88
2022-12-09T06:22:44.671Z,99283.25
2022-12-09T06:27:46.763Z,99292.59
2022-12-09T06:32:48.526Z,99295.97
2022-12-09T06:37:54.153Z,99307.97
2022-12-09T06:42:56.037Z,99307.97
2022-12-09T06:47:58.095Z,99302.78
2022-12-09T06:53:00.218Z,99302.66
2022-12-09T06:58:01.897Z,99307.25
2022-12-09T07:03:03.680Z,99304.88
2022-12-09T07:08:06.078Z,99304.03
2022-12-09T07:13:07.903Z,99311.47
2022-12-09T07:18:09.540Z,99313.81
2022-12-09T07:23:13.728Z,99302.91
2022-12-09T07:28:15.678Z,99308.94
2022-12-09T07:33:17.372Z,99320.66
2022-12-09T07:38:19.455Z,99307.13
2022-12-09T07:43:21.095Z,99313.25
2022-12-09T07:48:23.171Z,99308.22
2022-12-09T07:53:24.883Z,99315.91
2022-12-09T07:58:26.473Z,99312.00
2022-12-09T08:03:28.325Z,99318.56
2022-12-09T08:08:31.346Z,99319.69
2022-12-09T08:13:33.513Z,99317.00
2022-12-09T08:18:36.638Z,99319.00
2022-12-09T08:23:39.498Z,99315.91
2022-12-09T08:28:41.341Z,99326.63
2022-12-09T08:33:43.392Z,99333.34
2022-12-09T08:38:45.582Z,99318.69
2022-12-09T08:43:47.800Z,99330.00
2022-12-09T08:48:50.367Z,99331.69
2022-12-09T08:53:52.340Z,99324.28
2022-12-09T08:58:54.883Z,99316.72
2022-12-09T09:03:56.740Z,99315.97
2022-12-09T09:08:59.277Z,99303.00
2022-12-09T09:14:03.509Z,99294.53
2022-12-09T09:19:06.104Z,99303.59
2022-12-09T09:24:12.874Z,99306.81
2022-12-09T09:29:16.704Z,99302.34
2022-12-09T09:34:18.961Z,99299.56
2022-12-09T09:39:20.893Z,99299.00
2022-12-09T09:44:28.080Z,99296.63
2022-12-09T09:49:36.258Z,99287.56
2022-12-09T09:54:38.075Z,99276.81
2022-12-09T09:59:52.332Z,99280.31
2022-12-09T10:05:08.076Z,99264.13
2022-12-09T10:10:13.402Z,99261.06
2022-12-09T10:15:20.538Z,99250.97
2022-12-09T10:20:30.634Z,99256.00
2022-12-09T10:25:35.553Z,99252.31
2022-12-09T10:30:44.106Z,99249.19
2022-12-09T10:35:47.150Z,99238.22
2022-12-09T10:41:01.367Z,99227.19
2022-12-09T10:46:21.290Z,99211.84
2022-12-09T10:51:32.763Z,99214.63
2022-12-09T10:56:36.118Z,99211.31
2022-12-09T11:01:57.637Z,99206.41
2022-12-09T11:07:05.378Z,99204.59
2022-12-09T11:12:41.563Z,99206.94
2022-12-09T11:17:56.257Z,99191.56
2022-12-09T11:23:06.429Z,99195.59
2022-12-09T11:28:08.132Z,99187.53
2022-12-09T11:33:16.518Z,99199.56
2022-12-09T11:38:30.410Z,99191.97
2022-12-09T11:43:35.346Z,99192.09
2022-12-09T11:48:43.271Z,99188.34
2022-12-09T11:53:45.772Z,99191.38
2022-12-09T11:58:56.323Z,99186.09
2022-12-09T12:04:05.008Z,99186.03
2022-12-09T12:09:18.845Z,99187.72
2022-12-09T12:14:25.384Z,99192.75
2022-12-09T12:19:34.942Z,99177.41
2022-12-09T12:25:09.904Z,99185.88
2022-12-09T12:30:24.030Z,99178.75
2022-12-09T12:36:01.583Z,99172.31
2022-12-09T12:41:09.142Z,99165.81
2022-12-09T12:46:33.960Z,99164.53
2022-12-09T12:51:52.657Z,99158.84
2022-12-09T12:57:09.387Z,99153.47
2022-12-09T13:02:33.210Z,99156.66
2022-12-09T13:07:41.644Z,99151.44
2022-12-09T13:13:01.525Z,99140.38
2022-12-09T13:18:12.035Z,99138.78
2022-12-09T13:23:19.739Z,99134.50
2022-12-09T13:28:37.403Z,99139.78
2022-12-09T13:33:44.601Z,99138.50
2022-12-09T13:38:46.197Z,99138.34
2022-12-09T13:43:47.856Z,99139.53
2022-12-09T13:48:49.990Z,99135.28
2022-12-09T13:54:00.568Z,99128.56
2022-12-09T13:59:31.253Z,99129.84
2022-12-09T14:04:42.763Z,99134.69
2022-12-09T14:09:44.269Z,99131.09
2022-12-09T14:14:49.668Z,99131.97
2022-12-09T14:19:51.206Z,99126.09
2022-12-09T14:24:54.156Z,99116.31
2022-12-09T14:30:00.965Z,99111.41
2022-12-09T14:35:10.311Z,99117.19
2022-12-09T14:40:14.689Z,99123.03
2022-12-09T14:45:30.960Z,99121.63
2022-12-09T14:50:32.515Z,99110.56
2022-12-09T14:55:38.781Z,99107.59
2022-12-09T15:00:41.566Z,99116.81
2022-12-09T15:06:20.251Z,99111.56
2022-12-09T15:11:31.519Z,99100.81
2022-12-09T15:16:33.250Z,99098.16
2022-12-09T15:21:34.852Z,99101.34
2022-12-09T15:26:36.405Z,99104.88
2022-12-09T15:31:47.612Z,99112.31
2022-12-09T15:36:52.462Z,99093.63
2022-12-09T15:42:07.977Z,99096.25
2022-12-09T15:47:19.145Z,99118.19
2022-12-09T15:52:23.651Z,99118.19
2022-12-09T15:57:28.169Z,99105.63
2022-12-09T16:02:32.925Z,99110.53
2022-12-09T16:07:34.749Z,99112.06
2022-12-09T16:12:37.258Z,99119.72
2022-12-09T16:17:52.520Z,99107.03
2022-12-09T16:22:54.107Z,99111.25
2022-12-09T16:28:05.957Z,99100.34
2022-12-09T16:33:20.639Z,99111.78
2022-12-09T16:38:22.741Z,99114.56
2022-12-09T16:43:25.560Z,99113.72
2022-12-09T16:48:29.289Z,99112.34
2022-12-09T16:53:43.250Z,99105.34
2022-12-09T16:58:44.872Z,99099.81
2022-12-09T17:03:53.825Z,99093.94
2022-12-09T17:08:55.403Z,99092.84
2022-12-09T17:13:56.998Z,99088.38
2022-12-09T17:18:58.567Z,99091.16
2022-12-09T17:24:00.127Z,99088.63
2022-12-09T17:29:02.244Z,99091.97
2022-12-09T17:34:04.500Z,99099.38
2022-12-09T17:39:07.290Z,99104.25
2022-12-09T17:44:09.416Z,99104.53
2022-12-09T17:49:10.967Z,99112.63
2022-12-09T17:54:12.689Z,99115.69
2022-12-09T17:59:15.775Z,99120.16
2022-12-09T18:04:17.436Z,99126.00
2022-12-09T18:09:19.766Z,99132.16
2022-12-09T18:14:21.394Z,99138.53
2022-12-09T18:19:24.912Z,99146.66
2022-12-09T18:24:27.137Z,99146.22
2022-12-09T18:29:29.164Z,99143.28
2022-12-09T18:34:32.832Z,99142.03
2022-12-09T18:39:34.448Z,99147.91
2022-12-09T18:44:36.085Z,99155.84
2022-12-09T18:49:37.659Z,99157.81
2022-12-09T18:54:39.433Z,99150.69
2022-12-09T18:59:41.005Z,99160.88
2022-12-09T19:04:42.662Z,99165.50
2022-12-09T19:09:44.268Z,99157.81
2022-12-09T19:14:45.825Z,99156.84
2022-12-09T19:19:48.877Z,99162.25
2022-12-09T19:24:50.493Z,99167.00
2022-12-09T19:29:52.074Z,99162.69
2022-12-09T19:34:53.638Z,99168.94
2022-12-09T19:39:55.223Z,99164.66
2022-12-09T19:45:01.986Z,99166.03
2022-12-09T19:50:05.456Z,99169.53
2022-12-09T19:55:08.531Z,99167.13
2022-12-09T20:00:11.286Z,99173.69
2022-12-09T20:05:12.893Z,99167.84
2022-12-09T20:10:14.941Z,99177.00
2022-12-09T20:15:16.615Z,99169.34
2022-12-09T20:20:18.241Z,99166.53
2022-12-09T20:25:19.877Z,99166.69
2022-12-09T20:30:21.523Z,99168.94
2022-12-09T20:35:23.490Z,99172.72
2022-12-09T20:40:25.067Z,99177.59
2022-12-09T20:45:26.655Z,99173.28
2022-12-09T20:50:31.116Z,99190.00
2022-12-09T20:55:35.184Z,99188.44
2022-12-09T21:00:36.748Z,99188.72
2022-12-09T21:05:38.381Z,99182.28
2022-12-09T21:10:39.924Z,99178.34
2022-12-09T21:15:41.481Z,99180.22
2022-12-09T21:20:44.429Z,99174.94
2022-12-09T21:25:46.239Z,99178.44
2022-12-09T21:30:47.933Z,99176.44
2022-12-09T21:35:49.489Z,99176.00
2022-12-09T21:40:51.134Z,99183.09
2022-12-09T21:45:52.738Z,99186.59
2022-12-09T21:50:58.232Z,99196.13
2022-12-09T21:56:08.946Z,99197.41
2022-12-09T22:01:13.169Z,99196.78
2022-12-09T22:06:15.637Z,99198.25
2022-12-09T22:11:18.779Z,99198.44
2022-12-09T22:16:22.956Z,99203.25
2022-12-09T22:21:27.309Z,99216.38
2022-12-09T22:26:30.450Z,99206.63
2022-12-09T22:31:35.373Z,99213.16
2022-12-09T22:36:37.218Z,99214.03
2022-12-09T22:41:38.923Z,99218.38
2022-12-09T22:46:42.163Z,99213.19
2022-12-09T22:51:44.404Z,99206.44
2022-12-09T22:56:46.051Z,99209.69
2022-12-09T23:01:50.000Z,99203.47
2022-12-09T23:06:51.649Z,99209.66
2022-12-09T23:11:53.911Z,99220.13
2022-12-09T23:16:55.469Z,99215.66
2022-12-09T23:21:57.122Z,99215.97
2022-12-09T23:26:59.143Z,99221.91
2022-12-09T23:32:00.979Z,99222.06
2022-12-09T23:37:03.643Z,99223.41
2022-12-09T23:42:05.523Z,99212.56
2022-12-09T23:47:07.226Z,99215.56
2022-12-09T23:52:10.424Z,99225.56
2022-12-09T23:57:11.977Z,99229.31
